createdAt,value
2022-10-28T00:01:51.177Z,86.93
2022-10-28T00:06:58.967Z,86.69
2022-10-28T00:12:08.197Z,87.75
2022-10-28T00:17:15.166Z,85.81
2022-10-28T00:22:20.606Z,87.55
2022-10-28T00:27:27.428Z,86.98
2022-10-28T00:32:34.511Z,87.57
2022-10-28T00:37:41.949Z,93.48
2022-10-28T00:42:53.952Z,91.54
2022-10-28T00:48:02.529Z,91.65
2022-10-28T00:53:09.908Z,89.90
2022-10-28T00:58:20.424Z,91.67
2022-10-28T01:03:27.932Z,91.32
2022-10-28T01:08:33.966Z,93.23
2022-10-28T01:13:51.042Z,94.55
2022-10-28T01:19:07.100Z,94.81
2022-10-28T01:24:30.807Z,100.00
2022-10-28T01:30:09.122Z,100.00
2022-10-28T01:35:27.346Z,96.93
2022-10-28T01:40:45.435Z,94.79
2022-10-28T01:46:00.566Z,93.87
2022-10-28T01:51:14.752Z,92.92
2022-10-28T01:56:28.740Z,92.84
2022-10-28T02:01:37.569Z,94.50
2022-10-28T02:06:49.233Z,92.90
2022-10-28T02:12:15.259Z,94.64
2022-10-28T02:17:31.585Z,100.00
2022-10-28T02:22:52.081Z,100.00
2022-10-28T02:28:03.786Z,100.00
2022-10-28T02:33:14.010Z,100.00
2022-10-28T02:38:30.049Z,100.00
2022-10-28T02:43:39.083Z,100.00
2022-10-28T02:48:51.274Z,100.00
2022-10-28T02:54:06.048Z,100.00
2022-10-28T02:59:13.706Z,100.00
2022-10-28T03:04:19.214Z,100.00
2022-10-28T03:09:24.244Z,100.00
2022-10-28T03:14:27.807Z,100.00
2022-10-28T03:19:43.076Z,100.00
2022-10-28T03:24:47.864Z,100.00
2022-10-28T03:29:51.908Z,100.00
2022-10-28T03:34:55.936Z,100.00
2022-10-28T03:40:09.107Z,100.00
2022-10-28T03:45:13.764Z,100.00
2022-10-28T03:50:18.160Z,97.81
2022-10-28T03:55:27.486Z,98.33
2022-10-28T04:00:32.273Z,97.75
2022-10-28T04:05:37.471Z,100.00
2022-10-28T04:10:50.506Z,100.00
2022-10-28T04:16:03.263Z,100.00
2022-10-28T04:21:12.755Z,98.38
2022-10-28T04:26:19.450Z,100.00
2022-10-28T04:31:22.153Z,100.00
2022-10-28T04:36:24.915Z,100.00
2022-10-28T04:41:29.007Z,100.00
2022-10-28T04:46:31.706Z,98.80
2022-10-28T04:51:34.676Z,98.83
2022-10-28T04:56:38.641Z,100.00
2022-10-28T05:01:41.349Z,98.21
2022-10-28T05:06:43.976Z,97.84
2022-10-28T05:11:48.002Z,99.24
2022-10-28T05:16:50.654Z,99.10
2022-10-28T05:21:53.398Z,97.08
2022-10-28T05:26:57.528Z,96.34
2022-10-28T05:32:00.839Z,98.96
2022-10-28T05:37:03.498Z,96.71
2022-10-28T05:42:07.535Z,97.54
2022-10-28T05:47:10.192Z,97.76
2022-10-28T05:52:12.840Z,97.74
2022-10-28T05:57:16.770Z,98.22
2022-10-28T06:02:19.371Z,100.00
2022-10-28T06:07:21.944Z,100.00
2022-10-28T06:12:24.325Z,100.00
2022-10-28T06:17:26.970Z,99.96
2022-10-28T06:22:29.529Z,99.66
2022-10-28T06:27:33.509Z,98.19
2022-10-28T06:32:36.184Z,97.69
2022-10-28T06:37:38.901Z,98.62
2022-10-28T06:42:43.397Z,97.78
2022-10-28T06:47:47.531Z,99.03
2022-10-28T06:52:50.356Z,98.93
2022-10-28T06:57:54.883Z,96.65
2022-10-28T07:03:01.048Z,96.74
2022-10-28T07:08:04.163Z,96.79
2022-10-28T07:13:10.542Z,95.96
2022-10-28T07:18:13.298Z,95.04
2022-10-28T07:23:16.093Z,99.13
2022-10-28T07:28:20.811Z,96.00
2022-10-28T07:33:23.469Z,95.74
2022-10-28T07:38:28.814Z,96.41
2022-10-28T07:43:32.889Z,98.07
2022-10-28T07:48:36.881Z,96.01
2022-10-28T07:53:40.078Z,94.07
2022-10-28T07:58:45.648Z,91.97
2022-10-28T08:03:50.697Z,87.65
2022-10-28T08:08:56.697Z,85.67
2022-10-28T08:14:00.886Z,85.16
2022-10-28T08:19:06.813Z,85.25
2022-10-28T08:24:10.695Z,83.45
2022-10-28T08:29:17.522Z,82.95
2022-10-28T08:39:24.194Z,83.11
2022-10-28T08:44:58.670Z,82.03
2022-10-28T08:50:03.496Z,84.18
2022-10-28T08:55:08.699Z,83.23
2022-10-28T09:00:21.747Z,84.08
2022-10-28T09:05:26.333Z,88.47
2022-10-28T09:10:59.175Z,87.97
2022-10-28T09:16:13.726Z,87.57
2022-10-28T09:21:25.340Z,87.04
2022-10-28T09:26:42.254Z,83.55
2022-10-28T09:31:49.384Z,82.55
2022-10-28T09:36:56.801Z,80.37
2022-10-28T09:42:01.914Z,76.72
2022-10-28T09:47:16.484Z,77.20
2022-10-28T09:52:26.657Z,73.94
2022-10-28T09:57:32.769Z,73.96
2022-10-28T10:02:40.515Z,75.83
2022-10-28T10:07:47.539Z,72.23
2022-10-28T10:12:52.535Z,62.65
2022-10-28T10:17:59.605Z,55.15
2022-10-28T10:23:02.321Z,58.50
2022-10-28T10:28:15.765Z,49.39
2022-10-28T10:33:22.469Z,48.04
2022-10-28T10:38:25.510Z,45.69
2022-10-28T10:43:34.500Z,46.62
2022-10-28T10:48:38.591Z,46.90
2022-10-28T10:53:41.623Z,44.33
2022-10-28T10:58:52.635Z,40.98
2022-10-28T11:04:00.311Z,37.85
2022-10-28T11:09:06.078Z,42.18
2022-10-28T11:14:24.386Z,40.12
2022-10-28T11:19:33.151Z,43.69
2022-10-28T11:24:50.525Z,46.31
2022-10-28T11:29:54.302Z,49.29
2022-10-28T11:35:39.432Z,49.78
2022-10-28T11:40:56.088Z,44.08
2022-10-28T11:46:08.423Z,42.79
2022-10-28T11:51:28.229Z,41.47
2022-10-28T11:56:37.929Z,44.39
2022-10-28T12:01:52.347Z,50.79
2022-10-28T12:07:11.324Z,51.71
2022-10-28T12:12:23.217Z,56.20
2022-10-28T12:17:31.502Z,57.04
2022-10-28T12:22:46.551Z,57.67
2022-10-28T12:27:52.434Z,58.63
2022-10-28T12:33:01.237Z,61.79
2022-10-28T12:38:21.376Z,63.45
2022-10-28T12:43:30.820Z,62.00
2022-10-28T12:48:40.784Z,63.44
2022-10-28T12:53:51.135Z,62.14
2022-10-28T12:59:05.457Z,60.62
2022-10-28T13:04:12.257Z,61.26
2022-10-28T13:09:37.815Z,60.83
2022-10-28T13:14:59.999Z,56.72
2022-10-28T13:20:15.662Z,51.65
2022-10-28T13:25:38.080Z,50.72
2022-10-28T13:30:53.589Z,54.24
2022-10-28T13:36:08.985Z,55.94
2022-10-28T13:41:34.960Z,56.13
2022-10-28T13:47:03.367Z,55.73
2022-10-28T13:52:21.195Z,56.63
2022-10-28T13:57:29.843Z,57.07
2022-10-28T14:02:38.798Z,57.85
2022-10-28T14:07:52.811Z,55.58
2022-10-28T14:13:00.632Z,52.35
2022-10-28T14:24:32.550Z,46.18
2022-10-28T14:29:46.319Z,48.38
2022-10-28T14:34:49.302Z,48.91
2022-10-28T14:40:03.067Z,51.67
2022-10-28T14:45:24.682Z,53.75
2022-10-28T14:50:38.414Z,55.11
2022-10-28T14:55:41.453Z,56.73
2022-10-28T15:00:57.298Z,57.53
2022-10-28T15:06:20.599Z,60.45
2022-10-28T15:11:24.074Z,60.08
2022-10-28T15:16:28.097Z,60.70
2022-10-28T15:21:30.799Z,60.89
2022-10-28T15:26:35.946Z,62.49
2022-10-28T15:32:11.475Z,63.81
2022-10-28T15:37:18.764Z,64.86
2022-10-28T15:42:37.517Z,65.46
2022-10-28T15:47:41.502Z,66.10
2022-10-28T15:52:45.085Z,66.44
2022-10-28T15:57:49.585Z,67.38
2022-10-28T16:02:56.568Z,66.64
2022-10-28T16:08:00.400Z,66.97
2022-10-28T16:13:07.740Z,66.25
2022-10-28T16:18:15.595Z,66.63
2022-10-28T16:23:23.747Z,67.38
2022-10-28T16:28:29.206Z,66.81
2022-10-28T16:33:37.552Z,66.98
2022-10-28T16:38:41.748Z,67.66
2022-10-28T16:43:45.875Z,67.11
2022-10-28T16:48:50.615Z,67.17
2022-10-28T16:53:54.590Z,66.40
2022-10-28T16:58:57.451Z,66.58
2022-10-28T17:04:03.369Z,66.11
2022-10-28T17:09:08.719Z,66.24
2022-10-28T17:14:11.806Z,66.28
2022-10-28T17:19:16.885Z,66.57
2022-10-28T17:24:22.567Z,66.51
2022-10-28T17:29:29.245Z,66.44
2022-10-28T17:34:33.821Z,66.97
2022-10-28T17:39:37.995Z,66.75
2022-10-28T17:44:41.080Z,66.19
2022-10-28T17:49:46.723Z,66.84
2022-10-28T17:54:51.735Z,67.04
2022-10-28T17:59:54.844Z,67.19
2022-10-28T18:04:59.466Z,68.17
2022-10-28T18:10:03.071Z,67.87
2022-10-28T18:15:11.030Z,68.57
2022-10-28T18:20:22.039Z,69.64
2022-10-28T18:25:30.025Z,69.43
2022-10-28T18:30:36.020Z,69.52
2022-10-28T18:35:43.954Z,70.37
2022-10-28T18:40:51.441Z,71.15
2022-10-28T18:45:55.457Z,70.83
2022-10-28T18:51:00.565Z,71.51
2022-10-28T18:56:06.592Z,71.07
2022-10-28T19:01:11.790Z,71.15
2022-10-28T19:06:18.025Z,72.25
2022-10-28T19:11:25.975Z,72.33
2022-10-28T19:16:30.374Z,72.72
2022-10-28T19:21:35.244Z,72.07
2022-10-28T19:26:41.927Z,73.02
2022-10-28T19:31:45.013Z,72.92
2022-10-28T19:36:49.898Z,72.70
2022-10-28T19:41:53.004Z,72.08
2022-10-28T19:46:56.245Z,70.70
2022-10-28T19:52:00.634Z,71.31
2022-10-28T19:57:03.958Z,71.46
2022-10-28T20:02:07.258Z,71.58
2022-10-28T20:07:12.277Z,70.71
2022-10-28T20:12:15.192Z,70.53
2022-10-28T20:17:18.720Z,71.62
2022-10-28T20:22:22.864Z,70.17
2022-10-28T20:27:25.641Z,70.10
2022-10-28T20:32:29.053Z,71.35
2022-10-28T20:37:33.808Z,71.04
2022-10-28T20:42:37.123Z,73.01
2022-10-28T20:47:40.343Z,76.19
2022-10-28T20:52:48.944Z,77.80
2022-10-28T20:57:52.549Z,85.02
2022-10-28T21:02:57.510Z,89.44
2022-10-28T21:08:02.641Z,89.83
2022-10-28T21:13:07.191Z,85.56
2022-10-28T21:18:10.352Z,87.08
2022-10-28T21:23:14.921Z,87.94
2022-10-28T21:28:17.942Z,86.10
2022-10-28T21:33:21.913Z,85.46
2022-10-28T21:38:30.074Z,83.02
2022-10-28T21:43:36.298Z,82.32
2022-10-28T21:48:42.643Z,83.09
2022-10-28T21:53:50.207Z,82.08
2022-10-28T21:58:53.114Z,80.66
2022-10-28T22:03:57.330Z,80.20
2022-10-28T22:09:03.729Z,80.83
2022-10-28T22:14:07.043Z,79.76
2022-10-28T22:19:14.004Z,77.67
2022-10-28T22:24:18.545Z,78.28
2022-10-28T22:29:21.602Z,78.18
2022-10-28T22:34:24.608Z,78.48
2022-10-28T22:39:28.839Z,79.31
2022-10-28T22:44:34.015Z,79.14
2022-10-28T22:49:37.082Z,80.21
2022-10-28T22:54:41.880Z,80.69
2022-10-28T22:59:44.911Z,78.25
2022-10-28T23:04:48.130Z,77.70
2022-10-28T23:09:53.777Z,76.92
2022-10-28T23:14:58.804Z,76.66
2022-10-28T23:20:01.985Z,76.25
2022-10-28T23:25:10.521Z,77.89
2022-10-28T23:30:19.172Z,77.71
2022-10-28T23:35:22.485Z,76.76
2022-10-28T23:40:27.311Z,78.19
2022-10-28T23:45:30.970Z,77.79
2022-10-28T23:50:33.940Z,78.50
2022-10-28T23:55:38.912Z,78.33
